Time;durP1;ratioP1;P1;durP2;ratioP2;P2;SDS_P1;SDS_P2;PMS_P1;PMS_P2;Temp;Humidity;BMP_temperature;BMP_pressure;BME280_temperature;BME280_humidity;BME280_pressure;Samples;Min_cycle;Max_cycle;Signal;HPM_P1;HPM_P2
2021/09/28 00:10:19;;;;;;;;;;;;;;;;;;;;;
2021/09/28 00:27:32;;;;;;;;;;;;;;;;;;;;;
2021/09/28 00:35:45;;;;;;;1.45;0.90;;;13.80;99.90;;;;;;4889808;29;20056;-94
2021/09/28 00:39:26;;;;;;;1.63;0.80;;;13.60;99.90;;;;;;4876960;29;20045;-92
2021/09/28 00:55:27;;;;;;;3.08;1.13;;;12.70;99.90;;;;;;6135124;23;2133091;-91
2021/09/28 00:59:19;;;;;;;;;;;;;;;;;;;;;
2021/09/28 01:02:37;;;;;;;;;;;;;;;;;;;;;
2021/09/28 01:05:44;;;;;;;;;;;12.50;99.90;;;;;;6104548;23;20033;-91
2021/09/28 01:09:56;;;;;;;;;;;;;;;;;;;;;
2021/09/28 01:13:09;;;;;;;;;;;12.50;99.90;;;;;;6106346;23;20026;-92
2021/09/28 01:15:59;;;;;;;1.73;1.00;;;12.40;99.90;;;;;;6155214;23;19919;-92
2021/09/28 01:19:09;;;;;;;2.22;1.30;;;12.40;99.90;;;;;;6226282;23;20020;-93
2021/09/28 01:22:05;;;;;;;4.78;1.42;;;12.40;99.90;;;;;;6236447;23;20020;-92
2021/09/28 01:25:00;;;;;;;1.92;1.15;;;12.40;99.90;;;;;;6183680;23;20028;-92
2021/09/28 01:27:49;;;;;;;2.83;1.70;;;12.40;99.90;;;;;;6202980;23;20031;-92
2021/09/28 01:30:39;;;;;;;5.38;1.35;;;12.30;99.90;;;;;;6223548;23;20324;-92
2021/09/28 01:36:46;;;;;;;1.75;1.38;;;12.30;99.90;;;;;;6222973;23;20102;-92
2021/09/28 01:39:39;;;;;;;3.05;1.50;;;12.30;99.90;;;;;;6226556;23;20080;-92
2021/09/28 01:42:41;;;;;;;4.78;1.85;;;12.20;99.90;;;;;;6233054;23;20024;-92
2021/09/28 01:45:42;;;;;;;3.08;1.63;;;12.20;99.90;;;;;;6225710;23;20043;-92
2021/09/28 01:52:41;;;;;;;2.67;1.77;;;12.20;99.90;;;;;;6220705;23;20052;-91
2021/09/28 01:55:45;;;;;;;4.18;1.77;;;12.20;99.90;;;;;;6096449;23;20026;-91
2021/09/28 01:58:46;;;;;;;4.13;2.25;;;12.20;99.90;;;;;;6095039;23;20097;-91
2021/09/28 02:01:50;;;;;;;6.55;2.58;;;12.20;99.90;;;;;;6066681;23;20031;-91
2021/09/28 02:04:45;;;;;;;4.28;2.30;;;12.20;99.90;;;;;;6066295;23;20147;-91
2021/09/28 02:07:32;;;;;;;4.28;2.00;;;12.10;99.90;;;;;;6066357;23;20022;-91
2021/09/28 02:10:21;;;;;;;7.85;2.30;;;12.10;99.90;;;;;;6066016;23;20034;-92
2021/09/28 02:13:14;;;;;;;4.35;2.30;;;12.00;99.90;;;;;;6066253;23;20065;-92
2021/09/28 02:16:13;;;;;;;7.57;2.33;;;12.00;99.90;;;;;;6066441;23;20034;-92
2021/09/28 02:19:07;;;;;;;4.22;2.65;;;11.90;99.90;;;;;;6066884;23;20079;-92
2021/09/28 02:22:27;;;;;;;4.18;2.47;;;11.80;99.90;;;;;;6068838;23;20026;-92
2021/09/28 02:25:29;;;;;;;;;;;;;;;;;;;;;
2021/09/28 02:29:03;;;;;;;;;;;;;;;;;;;;;
2021/09/28 02:32:40;;;;;;;;;;;;;;;;;;;;;
2021/09/28 02:35:54;;;;;;;;;;;;;;;;;;;;;
2021/09/28 02:39:35;;;;;;;;;;;;;;;;;;;;;
2021/09/28 02:42:56;;;;;;;4.60;2.50;;;11.70;99.90;;;;;;6067147;23;20027;-92
2021/09/28 02:46:29;;;;;;;6.45;2.55;;;11.70;99.90;;;;;;5967178;24;20088;-92
2021/09/28 02:50:33;;;;;;;;;;;;;;;;;;;;;
2021/09/28 02:53:39;;;;;;;5.68;2.42;;;11.70;99.90;;;;;;5916631;24;20044;-91
2021/09/28 03:01:00;;;;;;;5.63;2.10;;;11.70;99.90;;;;;;5767279;24;20032;-92
2021/09/28 03:04:20;;;;;;;3.67;2.42;;;11.70;99.90;;;;;;5820857;24;20038;-91
2021/09/28 03:22:09;;;;;;;5.30;2.70;;;11.50;99.90;;;;;;6020723;23;20029;-92
2021/09/28 03:37:32;;;;;;;10.40;2.65;;;11.30;99.90;;;;;;5975824;23;20024;-92
2021/09/28 03:40:43;;;;;;;7.05;3.00;;;11.30;99.90;;;;;;5977252;23;20169;-91
2021/09/28 03:44:14;;;;;;;;;;;;;;;;;;;;;
2021/09/28 03:55:32;;;;;;;5.63;3.58;;;10.80;99.90;;;;;;5910319;23;20017;-91
2021/09/28 03:59:04;;;;;;;;;;;;;;;;;;;;;
2021/09/28 04:02:56;;;;;;;;;;;;;;;;;;;;;
2021/09/28 04:07:43;;;;;;;6.97;3.47;;;10.50;99.90;;;;;;6121037;23;20021;-93
2021/09/28 04:11:02;;;;;;;;;;;;;;;;;;;;;
2021/09/28 04:14:56;;;;;;;;;;;;;;;;;;;;;
2021/09/28 04:18:46;;;;;;;;;;;;;;;;;;;;;
2021/09/28 04:26:08;;;;;;;8.40;4.90;;;10.20;99.90;;;;;;5775284;24;20024;-94
2021/09/28 05:01:59;;;;;;;10.32;5.20;;;9.90;99.90;;;;;;6164121;22;1386399;-91
2021/09/28 05:04:47;;;;;;;10.40;5.63;;;9.90;99.90;;;;;;6221121;23;20032;-87
2021/09/28 05:07:35;;;;;;;13.93;5.85;;;9.90;99.90;;;;;;6220230;23;20036;-87
2021/09/28 05:10:22;;;;;;;13.63;5.40;;;9.90;99.90;;;;;;6221168;23;20080;-88
2021/09/28 05:13:09;;;;;;;10.18;4.95;;;9.80;99.90;;;;;;6219444;23;20020;-86
2021/09/28 05:15:57;;;;;;;12.40;5.93;;;9.70;99.90;;;;;;6217948;23;20032;-85
2021/09/28 05:18:44;;;;;;;9.70;5.35;;;9.60;99.90;;;;;;6221781;23;20044;-88
2021/09/28 05:21:32;;;;;;;10.30;5.50;;;9.50;99.90;;;;;;6220642;23;20052;-86
2021/09/28 05:24:20;;;;;;;10.18;6.35;;;9.40;99.90;;;;;;6221466;23;20035;-86
2021/09/28 05:27:10;;;;;;;10.32;5.95;;;9.40;99.90;;;;;;6219576;23;20090;-86
2021/09/28 05:29:58;;;;;;;16.80;6.43;;;9.50;99.90;;;;;;6220608;23;20098;-86
2021/09/28 05:32:59;;;;;;;13.50;6.68;;;9.50;99.90;;;;;;6220444;23;20054;-88
2021/09/28 05:35:46;;;;;;;11.25;6.78;;;9.40;99.90;;;;;;6217394;23;20032;-86
2021/09/28 05:38:34;;;;;;;16.33;8.57;;;9.50;99.90;;;;;;6222216;23;20463;-86
2021/09/28 05:41:21;;;;;;;13.20;7.22;;;9.60;99.90;;;;;;6221200;23;20131;-87
2021/09/28 05:44:08;;;;;;;8.85;7.10;;;9.60;99.90;;;;;;6219749;23;20108;-87
2021/09/28 05:46:56;;;;;;;13.02;7.20;;;9.50;99.90;;;;;;6197908;23;20036;-93
2021/09/28 05:49:48;;;;;;;12.68;8.10;;;9.50;99.90;;;;;;6220653;23;20098;-92
2021/09/28 05:52:36;;;;;;;13.38;6.00;;;9.50;99.90;;;;;;6224597;22;20111;-91
2021/09/28 05:55:24;;;;;;;14.95;8.15;;;9.50;99.90;;;;;;6222990;22;20028;-91
2021/09/28 05:58:13;;;;;;;17.90;8.60;;;9.50;99.90;;;;;;6220105;23;20079;-91
2021/09/28 06:01:00;;;;;;;17.17;9.00;;;9.50;99.90;;;;;;6213989;23;20032;-92
2021/09/28 06:03:48;;;;;;;19.63;10.55;;;9.50;99.90;;;;;;6190953;23;20080;-91
2021/09/28 06:06:35;;;;;;;15.27;10.60;;;9.50;99.90;;;;;;6213132;23;20111;-93
2021/09/28 06:09:23;;;;;;;20.60;10.68;;;9.60;99.90;;;;;;6214323;23;20021;-91
2021/09/28 06:12:11;;;;;;;17.23;10.05;;;9.70;99.90;;;;;;6213318;23;20024;-92
2021/09/28 06:15:03;;;;;;;21.48;10.85;;;9.80;99.90;;;;;;6215156;23;20028;-92
2021/09/28 06:17:56;;;;;;;18.25;9.80;;;9.90;99.90;;;;;;6214996;23;20035;-94
2021/09/28 06:20:49;;;;;;;13.30;10.50;;;10.00;99.90;;;;;;6203849;23;20074;-92
2021/09/28 06:23:46;;;;;;;19.90;9.98;;;10.20;99.90;;;;;;6213588;23;20028;-92
2021/09/28 06:26:36;;;;;;;17.48;8.85;;;10.40;99.90;;;;;;6214844;23;20115;-92
2021/09/28 06:29:47;;;;;;;14.45;7.30;;;10.50;99.90;;;;;;6214234;23;20043;-91
2021/09/28 06:32:31;;;;;;;11.65;7.72;;;10.50;99.90;;;;;;6216316;23;20040;-90
2021/09/28 06:35:35;;;;;;;12.48;7.18;;;10.60;99.90;;;;;;6213308;23;20021;-91
2021/09/28 06:38:26;;;;;;;10.15;6.25;;;10.70;99.90;;;;;;6217937;23;20478;-91
2021/09/28 06:41:14;;;;;;;11.98;5.32;;;10.90;99.90;;;;;;6216227;23;20107;-92
2021/09/28 07:45:04;;;;;;;;;;;;;;;;;;;;;
2021/09/28 07:52:45;;;;;;;8.45;4.07;;;13.50;99.90;;;;;;6076331;23;20082;-92
2021/09/28 08:16:11;;;;;;;;;;;13.90;99.90;;;;;;6158742;23;20030;-91
2021/09/28 09:21:08;;;;;;;5.95;1.40;;;23.60;77.30;;;;;;6157343;23;20097;-91
2021/09/28 09:25:12;;;;;;;4.75;1.27;;;24.10;76.20;;;;;;6154838;23;20448;-93
2021/09/28 09:29:12;;;;;;;;;;;;;;;;;;;;;
2021/09/28 09:59:18;;;;;;;;;;;26.10;57.20;;;;;;6164800;23;20029;-91
2021/09/28 10:02:29;;;;;;;5.25;1.33;;;25.70;56.20;;;;;;6055139;23;20227;-91
2021/09/28 10:05:21;;;;;;;5.13;1.30;;;23.50;57.10;;;;;;6053338;23;20038;-91
2021/09/28 10:08:21;;;;;;;6.57;1.65;;;22.10;62.90;;;;;;6071225;23;20349;-92
2021/09/28 10:12:15;;;;;;;5.50;1.33;;;22.00;65.00;;;;;;6074119;23;20023;-92
2021/09/28 10:19:40;;;;;;;4.00;0.90;;;25.20;58.00;;;;;;6068257;23;20056;-92
2021/09/28 10:43:31;;;;;;;;;;;;;;;;;;;;;
2021/09/28 10:51:25;;;;;;;5.20;1.20;;;22.80;58.00;;;;;;5866128;24;20501;-92
2021/09/28 10:59:05;;;;;;;;;;;;;;;;;;;;;
2021/09/28 11:17:00;;;;;;;7.20;1.30;;;24.90;55.10;;;;;;5592383;22;15072441;-95
2021/09/28 11:20:06;;;;;;;;;;;;;;;;;;;;;
2021/09/28 11:26:49;;;;;;;;;;;;;;;;;;;;;
2021/09/28 11:29:42;;;;;;;9.40;1.65;;;27.70;47.10;;;;;;6233671;23;20020;-93
2021/09/28 11:32:56;;;;;;;2.58;1.27;;;27.50;45.30;;;;;;6222414;23;20111;-94
2021/09/28 11:36:11;;;;;;;6.25;1.52;;;27.00;46.20;;;;;;6223666;23;20024;-91
2021/09/28 11:39:07;;;;;;;4.38;1.40;;;26.70;46.30;;;;;;6223969;23;20020;-94
2021/09/28 11:46:24;;;;;;;4.88;1.70;;;26.70;47.80;;;;;;6200699;23;20067;-91
2021/09/28 11:49:15;;;;;;;4.43;1.63;;;26.00;47.70;;;;;;6203241;23;20025;-93
2021/09/28 11:52:42;;;;;;;4.35;1.48;;;25.40;49.80;;;;;;6084020;23;20037;-91
2021/09/28 12:00:22;;;;;;;;;;;;;;;;;;;;;
2021/09/28 12:03:23;;;;;;;4.75;1.58;;;25.60;45.40;;;;;;5958668;24;20369;-91
2021/09/28 12:06:26;;;;;;;7.90;1.95;;;25.10;47.50;;;;;;5987742;24;20035;-92
2021/09/28 12:09:14;;;;;;;4.53;1.38;;;24.40;51.80;;;;;;6008546;23;20033;-93
2021/09/28 12:12:25;;;;;;;6.50;1.50;;;25.60;49.50;;;;;;6201309;23;20088;-92
2021/09/28 12:19:54;;;;;;;5.20;1.58;;;26.60;49.40;;;;;;6189757;23;20100;-93
2021/09/28 12:23:01;;;;;;;6.57;1.70;;;26.70;48.80;;;;;;6163233;23;20035;-93
2021/09/28 12:25:49;;;;;;;6.10;1.40;;;27.40;46.80;;;;;;6186653;23;20036;-93
2021/09/28 12:28:56;;;;;;;5.85;1.42;;;27.20;44.70;;;;;;6174903;23;20087;-93
2021/09/28 12:31:43;;;;;;;4.90;1.85;;;27.60;45.30;;;;;;6172849;23;20048;-94
2021/09/28 13:01:20;;;;;;;;;;;;;;;;;;;;;
2021/09/28 13:04:29;;;;;;;4.72;1.70;;;24.50;49.70;;;;;;6088137;23;20022;-90
2021/09/28 13:24:30;;;;;;;4.03;1.73;;;22.80;54.60;;;;;;6126353;23;20067;-89
2021/09/28 13:28:07;;;;;;;;;;;;;;;;;;;;;
2021/09/28 13:32:19;;;;;;;3.95;1.73;;;22.80;54.50;;;;;;6009275;23;20749;-93
2021/09/28 13:35:42;;;;;;;3.58;1.67;;;22.30;55.70;;;;;;5968963;24;20092;-92
2021/09/28 13:46:41;;;;;;;4.80;1.80;;;21.90;58.70;;;;;;5831854;24;20454;-90
2021/09/28 13:49:29;;;;;;;4.07;1.70;;;22.10;57.10;;;;;;6038520;23;20030;-94
2021/09/28 13:52:18;;;;;;;5.85;2.03;;;22.00;56.80;;;;;;6093938;23;20029;-92
2021/09/28 13:55:07;;;;;;;9.90;1.73;;;21.30;58.80;;;;;;6093548;23;20049;-91
2021/09/28 13:57:54;;;;;;;2.92;1.65;;;20.80;60.10;;;;;;6092548;23;20125;-92
2021/09/28 14:01:16;;;;;;;3.05;1.80;;;20.60;59.70;;;;;;6098089;23;20362;-91
2021/09/28 14:43:33;;;;;;;3.97;2.08;;;19.30;69.20;;;;;;6147402;22;1467132;-90
2021/09/28 14:46:31;;;;;;;5.53;2.63;;;18.50;71.60;;;;;;6172522;23;20032;-93
2021/09/28 14:49:24;;;;;;;6.70;2.47;;;18.60;70.20;;;;;;6189494;23;20036;-90
2021/09/28 14:52:14;;;;;;;6.57;2.38;;;18.50;71.50;;;;;;6190563;23;20066;-89
2021/09/28 14:55:36;;;;;;;5.80;2.55;;;18.60;70.50;;;;;;6189219;23;20380;-91
2021/09/28 14:58:39;;;;;;;5.80;2.75;;;18.90;70.40;;;;;;6190842;23;20032;-90
2021/09/28 15:01:38;;;;;;;6.45;2.85;;;19.00;70.30;;;;;;6188883;23;20032;-89
2021/09/28 15:04:36;;;;;;;4.45;2.50;;;18.90;69.80;;;;;;6187851;23;20047;-90
2021/09/28 15:07:26;;;;;;;3.92;2.50;;;18.80;71.60;;;;;;6190988;23;20040;-91
2021/09/28 15:10:13;;;;;;;7.50;3.08;;;18.80;72.70;;;;;;6188771;23;20132;-90
2021/09/28 15:13:06;;;;;;;8.02;3.25;;;18.70;72.30;;;;;;6189132;23;20451;-90
2021/09/28 15:15:53;;;;;;;8.52;3.47;;;18.40;74.00;;;;;;6171240;23;20052;-89
2021/09/28 15:18:40;;;;;;;5.72;3.33;;;18.00;76.40;;;;;;6190749;23;20025;-89
2021/09/28 15:21:28;;;;;;;8.77;3.67;;;17.90;77.00;;;;;;6188916;23;20028;-90
2021/09/28 15:24:17;;;;;;;8.48;3.63;;;17.90;77.30;;;;;;6188732;23;20076;-89
2021/09/28 15:27:05;;;;;;;8.57;3.25;;;17.80;77.00;;;;;;6192990;23;20029;-90
2021/09/28 15:29:52;;;;;;;6.65;3.50;;;17.70;79.50;;;;;;6193244;23;20055;-90
2021/09/28 15:32:40;;;;;;;8.15;4.00;;;17.60;79.30;;;;;;6190237;23;20021;-90
2021/09/28 15:35:28;;;;;;;5.80;3.13;;;17.60;80.20;;;;;;6190302;23;20122;-89
2021/09/28 15:38:42;;;;;;;7.13;3.47;;;17.50;80.70;;;;;;6192543;23;20080;-90
2021/09/28 15:41:31;;;;;;;6.18;3.58;;;17.40;81.40;;;;;;6197765;22;20320;-88
2021/09/28 15:44:20;;;;;;;6.88;3.92;;;17.30;83.00;;;;;;6189672;23;20025;-89
2021/09/28 15:47:10;;;;;;;9.35;4.10;;;17.10;84.90;;;;;;6186487;23;20033;-90
2021/09/28 15:49:58;;;;;;;12.60;4.57;;;16.80;85.70;;;;;;6183887;23;20045;-90
2021/09/28 15:52:46;;;;;;;7.88;4.00;;;16.60;86.40;;;;;;6185166;23;20035;-90
2021/09/28 15:55:33;;;;;;;6.75;4.10;;;16.50;88.00;;;;;;6181667;23;20104;-89
2021/09/28 15:58:21;;;;;;;8.93;3.92;;;16.30;90.10;;;;;;6185687;23;20120;-89
2021/09/28 16:01:13;;;;;;;5.53;3.97;;;16.20;90.50;;;;;;6160865;23;20025;-89
2021/09/28 16:04:02;;;;;;;6.05;4.07;;;16.20;90.50;;;;;;6180230;23;20029;-88
2021/09/28 16:06:55;;;;;;;12.68;4.30;;;16.30;91.20;;;;;;6183539;23;20025;-89
2021/09/28 16:09:45;;;;;;;9.40;4.20;;;16.40;91.80;;;;;;6184760;23;20115;-89
2021/09/28 16:12:32;;;;;;;7.05;3.83;;;16.40;92.40;;;;;;6181849;23;20162;-89
2021/09/28 16:15:23;;;;;;;8.57;4.35;;;16.30;93.00;;;;;;6162821;23;20029;-90
2021/09/28 16:18:11;;;;;;;7.28;4.85;;;16.30;93.40;;;;;;6181474;23;20039;-90
2021/09/28 16:21:00;;;;;;;7.88;4.20;;;16.30;93.70;;;;;;6162301;23;20302;-90
2021/09/28 16:23:52;;;;;;;5.75;4.35;;;16.20;94.30;;;;;;6185146;23;20433;-89
2021/09/28 16:26:43;;;;;;;9.38;4.25;;;16.10;95.40;;;;;;6183111;23;20021;-89
2021/09/28 16:29:32;;;;;;;8.90;4.55;;;15.90;96.70;;;;;;6162424;23;20025;-90
2021/09/28 16:32:25;;;;;;;7.57;4.35;;;15.70;97.80;;;;;;6181750;23;20103;-90
2021/09/28 16:35:25;;;;;;;6.57;4.82;;;15.60;99.40;;;;;;6185126;23;20065;-89
2021/09/28 16:38:19;;;;;;;8.43;5.18;;;15.40;99.90;;;;;;6184461;23;20048;-88
2021/09/28 16:41:15;;;;;;;8.63;4.70;;;15.20;99.90;;;;;;6181388;23;20029;-88
2021/09/28 16:44:04;;;;;;;8.98;4.80;;;15.10;99.90;;;;;;6180482;23;20039;-87
2021/09/28 16:46:52;;;;;;;5.75;4.28;;;14.90;99.90;;;;;;6182722;23;20025;-89
2021/09/28 16:49:39;;;;;;;8.30;4.75;;;14.70;99.90;;;;;;6183530;23;20096;-89
2021/09/28 16:52:27;;;;;;;6.50;5.10;;;14.50;99.90;;;;;;6182719;23;20119;-90
2021/09/28 16:55:19;;;;;;;7.53;4.80;;;14.40;99.90;;;;;;6182845;23;20025;-91
2021/09/28 16:58:07;;;;;;;8.60;4.43;;;14.20;99.90;;;;;;6183428;23;20033;-92
2021/09/28 17:00:54;;;;;;;6.78;4.97;;;14.10;99.90;;;;;;6184291;23;20021;-90
2021/09/28 17:03:42;;;;;;;8.43;5.03;;;13.90;99.90;;;;;;6182742;23;20029;-90
2021/09/28 17:06:30;;;;;;;6.50;4.80;;;13.80;99.90;;;;;;6182793;23;20433;-90
2021/09/28 17:09:20;;;;;;;8.90;5.20;;;13.70;99.90;;;;;;6185187;23;20063;-90
2021/09/28 17:12:09;;;;;;;13.82;4.60;;;13.60;99.90;;;;;;6185990;23;20025;-90
2021/09/28 17:14:57;;;;;;;8.93;4.72;;;13.50;99.90;;;;;;6185846;23;20056;-91
2021/09/28 17:17:46;;;;;;;9.27;5.47;;;13.40;99.90;;;;;;6181473;23;20116;-90
2021/09/28 17:20:36;;;;;;;10.65;5.40;;;13.40;99.90;;;;;;6182749;23;20036;-91
2021/09/28 17:23:23;;;;;;;6.97;5.40;;;13.30;99.90;;;;;;6185304;23;20021;-92
2021/09/28 17:26:11;;;;;;;7.75;5.50;;;13.30;99.90;;;;;;6182570;23;20041;-91
2021/09/28 17:29:02;;;;;;;13.85;5.90;;;13.20;99.90;;;;;;6186522;23;20056;-91
2021/09/28 17:32:24;;;;;;;10.05;6.07;;;13.10;99.90;;;;;;6185102;23;20089;-91
2021/09/28 17:35:12;;;;;;;10.95;5.63;;;13.00;99.90;;;;;;6182808;23;20400;-91
2021/09/28 17:38:00;;;;;;;9.40;6.32;;;12.90;99.90;;;;;;6182800;23;20337;-90
2021/09/28 17:40:51;;;;;;;9.30;5.82;;;12.70;99.90;;;;;;6184797;23;20048;-90
2021/09/28 17:43:39;;;;;;;12.32;6.10;;;12.70;99.90;;;;;;6181137;23;20025;-91
2021/09/28 17:46:27;;;;;;;7.38;6.03;;;12.50;99.90;;;;;;6181118;23;20075;-91
2021/09/28 17:49:16;;;;;;;11.20;5.55;;;12.50;99.90;;;;;;6185362;23;20033;-89
2021/09/28 17:52:05;;;;;;;8.93;5.45;;;12.30;99.90;;;;;;6181463;23;20047;-89
2021/09/28 17:55:05;;;;;;;8.80;5.43;;;12.20;99.90;;;;;;6181100;23;20438;-91
2021/09/28 17:57:53;;;;;;;7.80;5.30;;;12.20;99.90;;;;;;6184452;23;20029;-90
2021/09/28 18:00:40;;;;;;;9.30;6.15;;;12.20;99.90;;;;;;6183012;23;20031;-90
2021/09/28 18:03:29;;;;;;;10.85;6.32;;;12.20;99.90;;;;;;6181202;23;20025;-90
2021/09/28 18:06:19;;;;;;;10.38;6.90;;;12.20;99.90;;;;;;6182228;23;20025;-90
2021/09/28 18:09:08;;;;;;;12.90;6.72;;;12.10;99.90;;;;;;6180895;23;20096;-91
2021/09/28 18:11:58;;;;;;;10.25;6.53;;;12.10;99.90;;;;;;6183771;23;20041;-91
2021/09/28 18:14:46;;;;;;;14.55;7.47;;;12.10;99.90;;;;;;6180364;23;20028;-90
2021/09/28 18:17:38;;;;;;;11.43;6.53;;;12.00;99.90;;;;;;6184582;23;20083;-91
2021/09/28 18:20:26;;;;;;;10.75;6.60;;;12.00;99.90;;;;;;6180292;23;20432;-91
2021/09/28 18:23:16;;;;;;;8.75;6.63;;;11.90;99.90;;;;;;6179162;23;20345;-90
2021/09/28 18:26:03;;;;;;;9.95;5.80;;;11.90;99.90;;;;;;6180444;23;20097;-91
2021/09/28 18:28:51;;;;;;;10.68;6.00;;;11.80;99.90;;;;;;6182904;23;20107;-91
2021/09/28 18:31:46;;;;;;;9.13;6.18;;;11.80;99.90;;;;;;6184107;23;20040;-90
2021/09/28 18:34:33;;;;;;;13.93;5.88;;;11.70;99.90;;;;;;6181628;23;20429;-90
2021/09/28 18:37:39;;;;;;;16.67;6.50;;;11.70;99.90;;;;;;6182281;23;20022;-91
2021/09/28 18:40:33;;;;;;;13.32;7.40;;;11.70;99.90;;;;;;6185217;23;20025;-90
2021/09/28 18:43:32;;;;;;;13.25;6.57;;;11.70;99.90;;;;;;6183498;23;20452;-91
2021/09/28 18:46:19;;;;;;;11.07;6.22;;;11.60;99.90;;;;;;6180732;23;20104;-91
2021/09/28 18:49:08;;;;;;;8.80;7.05;;;11.60;99.90;;;;;;6186131;23;20037;-91
2021/09/28 18:52:11;;;;;;;12.57;7.05;;;11.60;99.90;;;;;;6187806;23;20325;-92
2021/09/28 18:55:02;;;;;;;13.77;7.60;;;11.50;99.90;;;;;;6186839;23;20032;-90
2021/09/28 18:57:55;;;;;;;10.98;7.60;;;11.50;99.90;;;;;;6161287;23;20021;-91
2021/09/28 19:00:56;;;;;;;9.55;7.50;;;11.50;99.90;;;;;;6181222;23;20076;-91
2021/09/28 19:09:56;;;;;;;17.02;7.65;;;11.50;99.90;;;;;;6184753;23;20384;-90
2021/09/28 19:12:43;;;;;;;10.38;7.20;;;11.50;99.90;;;;;;6184047;23;20029;-90
2021/09/28 19:15:30;;;;;;;16.67;9.85;;;11.60;99.90;;;;;;6182019;23;20021;-92
2021/09/28 19:18:18;;;;;;;15.35;10.13;;;11.60;99.90;;;;;;6183259;23;20021;-91
2021/09/28 19:23:55;;;;;;;16.33;9.23;;;11.60;99.90;;;;;;6184293;23;20033;-90
2021/09/28 19:26:46;;;;;;;14.98;9.65;;;11.70;99.90;;;;;;6185551;23;20025;-89
2021/09/28 19:29:37;;;;;;;14.65;8.55;;;11.60;99.90;;;;;;6182041;23;20273;-90
2021/09/28 19:32:24;;;;;;;16.40;8.98;;;11.70;99.90;;;;;;6181787;23;20333;-89
2021/09/28 19:35:11;;;;;;;16.65;8.32;;;11.70;99.90;;;;;;6162655;23;20028;-89
2021/09/28 19:38:05;;;;;;;11.90;7.70;;;11.60;99.90;;;;;;6182491;23;20032;-89
2021/09/28 19:40:54;;;;;;;12.70;8.18;;;11.60;99.90;;;;;;6183341;23;20372;-89
2021/09/28 19:43:42;;;;;;;17.58;9.38;;;11.60;99.90;;;;;;6184447;23;20056;-89
2021/09/28 19:46:32;;;;;;;13.10;8.57;;;11.60;99.90;;;;;;6180333;23;20036;-89
2021/09/28 19:49:21;;;;;;;18.08;9.48;;;11.60;99.90;;;;;;6183020;23;20377;-90
2021/09/28 19:52:13;;;;;;;9.95;7.18;;;11.60;99.90;;;;;;6186667;23;20029;-90
2021/09/28 19:55:27;;;;;;;11.63;7.43;;;11.50;99.90;;;;;;6163097;23;20393;-89
2021/09/28 20:38:17;;;;;;;13.43;10.02;;;11.60;99.90;;;;;;6182808;23;20045;-89
2021/09/28 20:41:07;;;;;;;11.82;9.25;;;11.70;99.90;;;;;;6182206;23;20503;-88
2021/09/28 20:43:57;;;;;;;12.48;9.40;;;11.80;99.90;;;;;;6183114;23;20091;-90
2021/09/28 20:46:44;;;;;;;15.05;9.65;;;11.80;99.90;;;;;;6184183;23;20044;-90
2021/09/28 20:49:34;;;;;;;12.52;9.30;;;11.90;99.90;;;;;;6183042;23;20029;-89
2021/09/28 20:52:21;;;;;;;10.50;8.93;;;11.90;99.90;;;;;;6182666;23;20017;-89
2021/09/28 20:55:12;;;;;;;16.77;8.50;;;12.00;99.90;;;;;;6182994;23;20116;-89
2021/09/28 20:57:59;;;;;;;12.75;7.80;;;11.90;99.90;;;;;;6181757;23;20414;-88
2021/09/28 21:00:47;;;;;;;11.32;8.05;;;11.80;99.90;;;;;;6181290;23;20029;-88
2021/09/28 21:03:34;;;;;;;14.50;8.30;;;11.80;99.90;;;;;;6181566;23;20028;-89
2021/09/28 21:06:24;;;;;;;10.52;8.20;;;11.80;99.90;;;;;;6181006;23;20550;-90
2021/09/28 21:09:12;;;;;;;13.57;8.10;;;11.90;99.90;;;;;;6182540;23;20384;-89
2021/09/28 21:12:01;;;;;;;11.20;7.80;;;11.90;99.90;;;;;;6184286;23;20029;-90
2021/09/28 21:14:48;;;;;;;13.95;7.65;;;11.90;99.90;;;;;;6185901;23;20400;-88
2021/09/28 21:17:35;;;;;;;14.57;7.25;;;11.90;99.90;;;;;;6181915;23;20446;-90
2021/09/28 21:20:28;;;;;;;9.38;7.05;;;11.90;99.90;;;;;;6181429;23;20052;-90
2021/09/28 21:23:15;;;;;;;10.40;7.85;;;11.90;99.90;;;;;;6180552;23;20091;-89
2021/09/28 21:26:03;;;;;;;11.70;7.60;;;11.90;99.90;;;;;;6182993;23;20029;-89
2021/09/28 21:28:52;;;;;;;11.27;7.25;;;11.90;99.90;;;;;;6182258;23;20091;-88
2021/09/28 21:31:40;;;;;;;9.55;6.68;;;11.90;99.90;;;;;;6180805;23;20123;-88
2021/09/28 21:34:37;;;;;;;12.95;7.25;;;11.80;99.90;;;;;;6182439;23;20021;-90
2021/09/28 21:37:24;;;;;;;8.90;7.00;;;11.90;99.90;;;;;;6181515;23;20077;-89
2021/09/28 21:40:13;;;;;;;10.23;8.07;;;11.90;99.90;;;;;;6182438;23;20040;-91
2021/09/28 21:43:00;;;;;;;10.77;7.53;;;11.90;99.90;;;;;;6182968;23;20376;-90
2021/09/28 21:45:47;;;;;;;12.65;9.18;;;11.90;99.90;;;;;;6180764;23;20081;-89
2021/09/28 21:48:35;;;;;;;17.75;9.25;;;12.00;99.90;;;;;;6182574;23;20236;-89
2021/09/28 21:51:25;;;;;;;16.38;9.30;;;12.00;99.90;;;;;;6180443;23;20361;-88
2021/09/28 21:54:15;;;;;;;15.18;9.27;;;12.00;99.90;;;;;;6184379;23;20171;-88
2021/09/28 21:57:06;;;;;;;12.88;8.85;;;12.00;99.90;;;;;;6182953;23;20325;-89
2021/09/28 21:59:54;;;;;;;12.50;9.52;;;12.00;99.90;;;;;;6181667;23;20120;-89
2021/09/28 22:02:42;;;;;;;14.60;9.27;;;12.00;99.90;;;;;;6179637;23;20029;-90
2021/09/28 22:05:32;;;;;;;12.35;8.38;;;12.10;99.90;;;;;;6184362;23;20456;-89
2021/09/28 22:08:19;;;;;;;10.65;7.53;;;12.20;99.90;;;;;;6180229;23;20083;-89
2021/09/28 22:11:06;;;;;;;14.50;7.72;;;12.20;99.90;;;;;;6180415;23;20114;-89
2021/09/28 22:13:53;;;;;;;15.85;7.85;;;12.30;99.90;;;;;;6180386;23;20029;-89
2021/09/28 22:16:41;;;;;;;7.88;6.80;;;12.30;99.90;;;;;;6180536;23;20120;-88
2021/09/28 22:19:28;;;;;;;13.48;8.05;;;12.40;99.90;;;;;;6181188;23;20100;-89
2021/09/28 22:22:15;;;;;;;12.57;8.65;;;12.40;99.90;;;;;;6181486;23;20033;-88
2021/09/28 22:25:04;;;;;;;11.90;8.35;;;12.40;99.90;;;;;;6181974;23;20021;-89
2021/09/28 22:27:51;;;;;;;13.15;9.13;;;12.50;99.90;;;;;;6181515;23;20033;-88
2021/09/28 22:30:40;;;;;;;12.70;9.00;;;12.40;99.90;;;;;;6180664;23;20033;-89
2021/09/28 22:33:29;;;;;;;20.15;11.20;;;12.50;99.90;;;;;;6180447;23;20107;-89
2021/09/28 22:36:17;;;;;;;16.42;10.02;;;12.40;99.90;;;;;;6161294;23;20033;-88
2021/09/28 22:39:04;;;;;;;15.65;9.55;;;12.40;99.90;;;;;;6181273;23;20029;-89
2021/09/28 22:41:51;;;;;;;13.82;9.30;;;12.40;99.90;;;;;;6182138;23;20500;-88
2021/09/28 22:44:38;;;;;;;13.95;8.13;;;12.40;99.90;;;;;;6181266;23;20095;-89
2021/09/28 22:47:26;;;;;;;15.00;8.13;;;12.40;99.90;;;;;;6181579;23;20040;-88
2021/09/28 22:50:13;;;;;;;14.27;8.15;;;12.40;99.90;;;;;;6180489;23;20025;-89
2021/09/28 22:53:00;;;;;;;17.27;8.55;;;12.50;99.90;;;;;;6181765;23;20021;-90
2021/09/28 22:55:48;;;;;;;11.43;7.90;;;12.50;99.90;;;;;;6185554;23;20096;-89
2021/09/28 22:58:38;;;;;;;13.73;9.65;;;12.40;99.90;;;;;;6184460;23;20139;-90
2021/09/28 23:01:26;;;;;;;12.77;8.82;;;12.40;99.90;;;;;;6181801;23;20076;-89
2021/09/28 23:04:14;;;;;;;11.52;9.27;;;12.40;99.90;;;;;;6182213;23;20160;-89
2021/09/28 23:07:03;;;;;;;12.95;9.38;;;12.40;99.90;;;;;;6184432;23;20064;-89
2021/09/28 23:09:50;;;;;;;13.48;10.85;;;12.20;99.90;;;;;;6183943;23;20025;-89
2021/09/28 23:12:42;;;;;;;15.68;10.15;;;12.20;99.90;;;;;;6184487;23;20029;-89
2021/09/28 23:15:29;;;;;;;13.15;10.10;;;12.10;99.90;;;;;;6183673;23;20351;-90
2021/09/28 23:18:16;;;;;;;12.70;9.88;;;12.10;99.90;;;;;;6185971;23;20464;-89
2021/09/28 23:21:04;;;;;;;14.85;10.75;;;11.90;99.90;;;;;;6182606;23;20103;-90
2021/09/28 23:23:53;;;;;;;13.15;10.00;;;11.90;99.90;;;;;;6182858;23;20057;-88
2021/09/28 23:26:43;;;;;;;13.35;9.98;;;11.90;99.90;;;;;;6183405;23;20036;-89
2021/09/28 23:29:30;;;;;;;17.73;10.80;;;11.90;99.90;;;;;;6183699;23;20068;-89
2021/09/28 23:32:17;;;;;;;14.10;10.65;;;11.90;99.90;;;;;;6180940;23;20409;-90
2021/09/28 23:35:05;;;;;;;12.63;10.55;;;11.80;99.90;;;;;;6182259;23;20025;-89
2021/09/28 23:37:57;;;;;;;16.58;10.88;;;11.80;99.90;;;;;;6185213;23;20021;-89
2021/09/28 23:40:44;;;;;;;13.00;10.67;;;11.90;99.90;;;;;;6180875;23;20176;-90
2021/09/28 23:43:31;;;;;;;14.07;11.38;;;11.90;99.90;;;;;;6184382;23;20719;-89
2021/09/28 23:46:18;;;;;;;13.52;10.75;;;11.90;99.90;;;;;;6181657;23;20100;-89
2021/09/28 23:49:06;;;;;;;16.85;10.02;;;11.90;99.90;;;;;;6181332;23;20029;-89
2021/09/28 23:51:53;;;;;;;16.50;10.95;;;12.00;99.90;;;;;;6182339;23;20479;-88
2021/09/28 23:54:41;;;;;;;18.63;10.85;;;12.00;99.90;;;;;;6182932;23;20183;-90
2021/09/28 23:57:28;;;;;;;17.20;10.60;;;12.00;99.90;;;;;;6184409;23;20025;-90
